Time;durP1;ratioP1;P1;durP2;ratioP2;P2;SDS_P1;SDS_P2;PMS_P1;PMS_P2;Temp;Humidity;BMP_temperature;BMP_pressure;BME280_temperature;BME280_humidity;BME280_pressure;Samples;Min_cycle;Max_cycle;Signal;HPM_P1;HPM_P2
2022/04/19 14:03:49;;;;;;;6.78;4.25;;;;;;;25.38;19.48;101096.34;5094645;27;20762;-87
2022/04/19 14:06:15;;;;;;;9.23;5.20;;;;;;;24.96;19.74;101097.25;5053015;28;20171;-84
2022/04/19 14:08:40;;;;;;;7.70;3.92;;;;;;;24.67;19.75;101092.22;5036172;28;20068;-88
2022/04/19 14:11:06;;;;;;;7.60;4.43;;;;;;;24.43;20.30;101085.63;5036956;28;20037;-89
2022/04/19 14:13:32;;;;;;;7.20;4.72;;;;;;;24.22;20.24;101086.00;5036549;28;20040;-89
2022/04/19 14:15:58;;;;;;;6.82;4.47;;;;;;;23.65;20.95;101101.00;5041614;28;20032;-90
2022/04/19 14:18:23;;;;;;;8.63;5.43;;;;;;;23.31;21.57;101096.28;5071402;28;20037;-90
2022/04/19 14:20:49;;;;;;;8.75;5.82;;;;;;;22.92;21.65;101095.69;5042240;28;20147;-89
2022/04/19 14:23:15;;;;;;;8.18;4.90;;;;;;;23.05;22.57;101093.47;5055427;28;20056;-88
2022/04/19 14:25:40;;;;;;;7.13;5.38;;;;;;;23.19;21.94;101095.63;5037469;28;20029;-90
2022/04/19 14:28:06;;;;;;;6.18;4.45;;;;;;;23.11;21.75;101085.53;5043492;28;20112;-89
2022/04/19 14:33:15;;;;;;;6.47;4.70;;;;;;;22.75;23.28;101079.19;5057004;28;20658;-89
2022/04/19 14:35:40;;;;;;;7.35;5.40;;;;;;;22.60;22.46;101080.69;5049463;28;20083;-90
2022/04/19 14:38:06;;;;;;;6.18;4.72;;;;;;;22.54;22.89;101081.31;5045171;28;20390;-91
2022/04/19 14:40:31;;;;;;;6.82;5.00;;;;;;;22.34;22.65;101075.94;5050920;28;20040;-90
2022/04/19 14:42:57;;;;;;;7.70;4.82;;;;;;;22.48;23.69;101082.72;5042254;28;20076;-91
2022/04/19 14:45:23;;;;;;;8.52;5.20;;;;;;;22.38;24.05;101076.50;5035742;28;20029;-86
2022/04/19 14:47:48;;;;;;;7.18;5.47;;;;;;;22.29;23.93;101066.56;5037403;28;20121;-90
2022/04/19 14:50:14;;;;;;;7.15;5.13;;;;;;;22.36;23.63;101071.25;5048267;28;20104;-87
2022/04/19 14:52:39;;;;;;;7.90;5.28;;;;;;;22.03;24.51;101066.31;5042425;28;22025;-87
2022/04/19 14:55:05;;;;;;;8.85;5.60;;;;;;;21.92;25.07;101069.22;5046427;28;20474;-88
2022/04/19 14:57:30;;;;;;;7.97;6.13;;;;;;;21.59;25.35;101063.25;5041627;28;20088;-89
2022/04/19 14:59:55;;;;;;;8.00;5.70;;;;;;;21.45;25.50;101071.84;5038751;28;20389;-90
2022/04/19 15:02:21;;;;;;;7.28;5.55;;;;;;;21.63;26.75;101073.66;5042723;28;20049;-89
2022/04/19 15:04:46;;;;;;;7.05;5.50;;;;;;;21.64;25.82;101066.38;5041025;28;20052;-89
2022/04/19 15:07:12;;;;;;;6.43;5.43;;;;;;;21.53;26.28;101075.53;5039203;28;20126;-88
2022/04/19 15:09:37;;;;;;;7.40;5.10;;;;;;;21.37;26.52;101078.81;5030111;28;20025;-89
2022/04/19 15:12:03;;;;;;;7.00;5.70;;;;;;;21.14;26.31;101070.06;5036110;28;20029;-92
2022/04/19 15:14:30;;;;;;;6.70;5.50;;;;;;;21.28;27.02;101073.38;5060709;28;20036;-88
2022/04/19 15:16:59;;;;;;;5.93;4.82;;;;;;;21.12;27.07;101063.09;5027596;28;20064;-89
2022/04/19 15:19:25;;;;;;;6.78;5.00;;;;;;;21.05;27.38;101065.50;5023258;28;20040;-90
2022/04/19 15:21:50;;;;;;;5.70;4.63;;;;;;;20.88;27.10;101063.47;5042184;28;20033;-90
2022/04/19 15:24:15;;;;;;;7.85;5.00;;;;;;;20.86;27.16;101074.44;5035682;28;20394;-88
2022/04/19 15:26:45;;;;;;;5.45;4.55;;;;;;;20.70;26.80;101068.72;5037676;28;20025;-89
2022/04/19 15:29:10;;;;;;;5.60;4.20;;;;;;;20.84;27.16;101062.91;5028943;28;20039;-88
2022/04/19 15:31:35;;;;;;;7.63;4.07;;;;;;;21.09;26.92;101066.06;5028200;28;20018;-91
2022/04/19 15:34:02;;;;;;;6.65;4.60;;;;;;;21.09;26.96;101066.06;5026490;28;20350;-91
2022/04/19 15:36:28;;;;;;;5.75;4.82;;;;;;;21.00;27.07;101064.22;5024515;28;20062;-89
2022/04/19 15:38:54;;;;;;;5.13;4.30;;;;;;;20.82;27.40;101069.47;5040359;28;20029;-90
2022/04/19 15:41:19;;;;;;;6.45;4.85;;;;;;;20.72;27.76;101071.25;5028669;28;20583;-90
2022/04/19 15:43:44;;;;;;;5.35;4.78;;;;;;;20.57;27.43;101068.09;5033807;28;20268;-89
2022/04/19 15:46:09;;;;;;;6.22;4.63;;;;;;;20.37;27.22;101070.69;5063472;28;20548;-89
2022/04/19 15:48:35;;;;;;;7.53;4.35;;;;;;;20.45;28.21;101072.72;5024955;28;20040;-87
2022/04/19 15:51:00;;;;;;;6.32;4.40;;;;;;;20.35;28.19;101074.50;5041210;28;20029;-88
2022/04/19 15:53:27;;;;;;;6.78;4.60;;;;;;;20.30;28.47;101071.38;5033977;28;20561;-87
2022/04/19 15:55:52;;;;;;;5.07;4.10;;;;;;;20.32;28.24;101064.00;5034473;28;20033;-88
2022/04/19 15:58:18;;;;;;;7.18;4.55;;;;;;;20.28;28.24;101068.81;5029977;28;20026;-90
2022/04/19 16:00:43;;;;;;;5.57;3.88;;;;;;;20.23;28.08;101062.97;5034894;28;20485;-90
2022/04/19 16:03:09;;;;;;;6.85;3.95;;;;;;;20.25;28.34;101070.91;5043809;28;20428;-91
2022/04/19 16:05:34;;;;;;;6.13;4.25;;;;;;;20.12;28.61;101066.59;5025244;28;20028;-96
2022/04/19 16:07:59;;;;;;;6.25;4.07;;;;;;;20.07;28.36;101074.25;5024626;28;20033;-90
2022/04/19 16:10:27;;;;;;;5.05;3.88;;;;;;;19.93;28.40;101077.28;5028944;28;20029;-89
2022/04/19 16:12:55;;;;;;;6.63;4.40;;;;;;;19.69;28.85;101066.75;5038449;28;20033;-90
2022/04/19 16:15:22;;;;;;;7.95;4.63;;;;;;;19.65;29.45;101068.88;5027227;28;20111;-89
2022/04/19 16:23:22;;;;;;;5.15;4.45;;;;;;;19.24;29.45;101085.81;5017892;28;20052;-89
2022/04/19 16:25:51;;;;;;;6.32;4.18;;;;;;;19.13;29.80;101083.16;5026544;28;20037;-89
2022/04/19 16:28:17;;;;;;;7.38;4.95;;;;;;;19.10;30.15;101083.41;5021784;28;20386;-89
2022/04/19 16:30:42;;;;;;;7.90;4.72;;;;;;;19.08;30.39;101083.53;5027726;28;20106;-90
2022/04/19 16:33:08;;;;;;;7.15;4.38;;;;;;;19.02;30.60;101092.16;5029677;28;20549;-88
2022/04/19 16:35:35;;;;;;;6.53;4.32;;;;;;;18.98;30.67;101090.69;5028436;28;20397;-87
2022/04/19 16:38:00;;;;;;;5.40;3.90;;;;;;;18.90;30.46;101094.00;5020634;28;20032;-87
2022/04/19 16:40:25;;;;;;;6.28;4.72;;;;;;;18.92;31.18;101086.63;5026342;28;20037;-88
2022/04/19 16:42:51;;;;;;;5.95;4.57;;;;;;;18.84;30.78;101085.56;5029638;28;20056;-90
2022/04/19 16:45:16;;;;;;;8.70;4.63;;;;;;;18.84;31.14;101080.16;5024943;28;20033;-90
2022/04/19 16:47:46;;;;;;;5.05;4.00;;;;;;;18.78;31.25;101088.75;5030853;28;20029;-87
2022/04/19 16:50:12;;;;;;;8.13;4.22;;;;;;;18.63;31.44;101070.09;5023043;28;20890;-87
2022/04/19 16:52:37;;;;;;;7.05;4.35;;;;;;;18.74;31.53;101084.59;5056487;28;20167;-87
2022/04/19 16:55:03;;;;;;;5.13;4.30;;;;;;;18.77;31.17;101090.59;5024637;28;20056;-86
2022/04/19 16:57:29;;;;;;;6.13;4.03;;;;;;;18.63;31.15;101080.03;5035024;28;20037;-87
2022/04/19 16:59:54;;;;;;;4.93;3.47;;;;;;;18.45;30.87;101082.38;5026959;28;20701;-86
2022/04/19 17:02:20;;;;;;;5.47;4.18;;;;;;;18.31;30.94;101075.41;5023595;28;20049;-88
2022/04/19 17:04:45;;;;;;;7.18;3.85;;;;;;;18.21;30.93;101089.72;5028135;28;20025;-88
2022/04/19 17:07:10;;;;;;;6.03;3.80;;;;;;;18.06;30.84;101075.63;5026122;28;20322;-87
2022/04/19 17:09:36;;;;;;;5.55;3.80;;;;;;;18.08;30.38;101085.28;5029972;28;20029;-88
2022/04/19 17:12:01;;;;;;;6.55;3.58;;;;;;;18.02;30.74;101087.63;5027673;28;20063;-88
2022/04/19 17:14:27;;;;;;;3.75;3.03;;;;;;;17.97;30.13;101087.09;5038218;28;20108;-89
2022/04/19 17:16:52;;;;;;;7.25;3.58;;;;;;;17.79;29.59;101089.41;5031659;28;20063;-89
2022/04/19 17:19:18;;;;;;;5.18;3.30;;;;;;;17.73;30.38;101085.31;5023314;28;20030;-90
2022/04/19 17:21:43;;;;;;;4.85;3.20;;;;;;;17.64;30.20;101092.28;5029080;28;20655;-88
2022/04/19 17:24:08;;;;;;;6.47;4.00;;;;;;;17.55;30.12;101090.25;5030506;28;20198;-89
2022/04/19 17:26:34;;;;;;;4.63;3.22;;;;;;;17.46;30.47;101090.97;5020692;28;20038;-89
2022/04/19 17:28:59;;;;;;;4.78;3.80;;;;;;;17.33;30.82;101099.13;5038877;28;20029;-90
2022/04/19 17:31:24;;;;;;;4.82;3.50;;;;;;;17.25;30.81;101090.75;5037365;28;20029;-91
2022/04/19 17:33:50;;;;;;;4.57;3.35;;;;;;;17.19;31.36;101096.59;5028781;28;20036;-90
2022/04/19 17:36:15;;;;;;;5.25;3.28;;;;;;;17.22;31.94;101106.25;5021790;28;20042;-89
2022/04/19 17:38:41;;;;;;;6.63;4.20;;;;;;;17.09;31.69;101100.94;5038729;28;20037;-89
2022/04/19 17:41:08;;;;;;;5.07;3.55;;;;;;;17.01;32.03;101104.19;5027832;28;20025;-88
2022/04/19 17:43:33;;;;;;;6.43;3.92;;;;;;;17.00;32.37;101107.00;5026668;28;20037;-89
2022/04/19 17:45:59;;;;;;;4.82;3.60;;;;;;;16.89;32.43;101099.75;5023575;28;20099;-89
2022/04/19 17:48:24;;;;;;;5.80;3.50;;;;;;;16.91;32.76;101103.16;5022393;28;20350;-88
2022/04/19 17:56:29;;;;;;;5.68;3.60;;;;;;;16.73;33.02;101110.75;5022614;28;20462;-89
2022/04/19 17:59:02;;;;;;;5.13;3.10;;;;;;;16.60;33.20;101109.88;5023528;28;20049;-91
2022/04/19 18:01:28;;;;;;;3.85;3.30;;;;;;;16.53;33.33;101113.97;5035262;28;20075;-89
2022/04/19 18:03:55;;;;;;;4.15;2.90;;;;;;;16.40;33.12;101108.63;5023856;28;20088;-88
2022/04/19 18:06:21;;;;;;;6.47;4.20;;;;;;;16.33;33.32;101105.50;5019796;28;20431;-90
2022/04/19 18:08:46;;;;;;;4.07;2.72;;;;;;;16.21;33.39;101109.03;5018174;28;20449;-89
2022/04/19 18:11:12;;;;;;;4.57;2.80;;;;;;;16.20;33.31;101123.44;5055946;28;20022;-90
2022/04/19 18:13:37;;;;;;;3.15;2.80;;;;;;;16.14;33.56;101123.88;5033399;28;20034;-89
2022/04/19 18:16:03;;;;;;;4.28;2.88;;;;;;;16.13;33.31;101139.09;5021521;28;20029;-89
2022/04/19 18:18:29;;;;;;;3.40;2.15;;;;;;;16.02;33.29;101135.47;5024344;28;20490;-89
2022/04/19 18:20:56;;;;;;;4.63;2.67;;;;;;;15.94;33.21;101147.59;5028181;28;20061;-89
2022/04/19 18:26:05;;;;;;;;;;;;;;;15.94;33.17;101155.66;5033179;28;20044;-90
2022/04/19 18:28:30;;;;;;;3.75;2.55;;;;;;;15.77;33.75;101153.25;5030597;28;19917;-90
2022/04/19 18:30:57;;;;;;;4.15;2.35;;;;;;;15.65;33.93;101154.06;5035672;28;20041;-89
2022/04/19 18:33:22;;;;;;;2.25;2.05;;;;;;;15.56;33.79;101160.03;5022284;28;20082;-89
2022/04/19 18:35:48;;;;;;;2.85;2.47;;;;;;;15.50;33.89;101161.28;5022210;28;20026;-89
2022/04/19 18:38:14;;;;;;;4.40;2.47;;;;;;;15.40;34.44;101161.03;5029102;28;20033;-90
2022/04/19 18:40:39;;;;;;;3.10;2.40;;;;;;;15.41;34.35;101173.47;5032132;28;20033;-90
2022/04/19 18:43:09;;;;;;;4.20;2.88;;;;;;;15.33;34.35;101172.25;5025488;28;20124;-89
2022/04/19 18:45:35;;;;;;;2.90;2.63;;;;;;;15.27;34.62;101183.41;5021730;28;20030;-90
2022/04/19 18:48:00;;;;;;;4.03;2.45;;;;;;;15.19;34.38;101191.94;5031938;28;20030;-89
2022/04/19 18:50:26;;;;;;;3.47;2.42;;;;;;;15.13;34.59;101195.00;5026000;28;20076;-90
2022/04/19 18:52:52;;;;;;;5.88;2.50;;;;;;;15.07;34.13;101184.69;5031823;28;20063;-93
2022/04/19 18:55:18;;;;;;;5.30;2.30;;;;;;;15.08;34.41;101191.75;5022068;28;20064;-91
2022/04/19 18:57:44;;;;;;;3.70;2.75;;;;;;;15.03;34.50;101194.75;5023456;28;20034;-92
2022/04/19 19:00:15;;;;;;;2.95;2.40;;;;;;;15.02;34.16;101194.84;5026200;28;20040;-91
2022/04/19 19:02:51;;;;;;;2.72;2.40;;;;;;;15.00;34.37;101200.28;5032511;28;20076;-92
2022/04/19 19:05:18;;;;;;;4.10;2.30;;;;;;;14.90;34.63;101209.88;5029782;28;20471;-92
2022/04/19 19:07:43;;;;;;;2.38;2.17;;;;;;;14.82;34.78;101206.81;5027245;28;20049;-91
2022/04/19 19:10:09;;;;;;;3.75;2.50;;;;;;;14.70;34.52;101200.41;5027664;28;20087;-91
2022/04/19 19:12:35;;;;;;;4.18;2.70;;;;;;;14.70;34.76;101209.31;5025900;28;20362;-91
2022/04/19 19:15:01;;;;;;;4.60;2.80;;;;;;;14.67;34.72;101205.94;5029033;28;20115;-92
2022/04/19 19:17:26;;;;;;;4.60;2.72;;;;;;;14.59;35.16;101206.47;5016628;28;20033;-91
2022/04/19 19:19:51;;;;;;;4.25;2.88;;;;;;;14.55;35.03;101209.41;5034494;28;20423;-91
2022/04/19 19:22:17;;;;;;;3.80;2.80;;;;;;;14.50;35.21;101217.72;5027023;28;20083;-90
2022/04/19 19:24:42;;;;;;;3.97;2.83;;;;;;;14.47;35.33;101220.56;5022157;28;20036;-91
2022/04/19 19:27:08;;;;;;;4.55;2.78;;;;;;;14.44;35.31;101226.97;5022145;28;20100;-91
2022/04/19 19:29:34;;;;;;;3.28;2.80;;;;;;;14.42;35.41;101225.31;5026776;28;20378;-91
2022/04/19 19:32:00;;;;;;;3.75;2.97;;;;;;;14.39;35.56;101237.09;5029068;28;20029;-90
2022/04/19 19:34:31;;;;;;;4.82;2.88;;;;;;;14.29;35.86;101230.56;5021599;28;20283;-91
2022/04/19 19:36:57;;;;;;;4.78;3.10;;;;;;;14.28;35.97;101238.69;5021046;28;20233;-91
2022/04/19 19:39:26;;;;;;;6.28;3.17;;;;;;;14.16;35.96;101251.00;5027359;28;20041;-91
2022/04/19 19:41:51;;;;;;;4.90;3.30;;;;;;;14.13;36.13;101256.53;5026232;28;20438;-92
2022/04/19 19:44:17;;;;;;;3.10;2.80;;;;;;;14.06;36.28;101258.72;5044049;28;20025;-92
2022/04/19 19:46:44;;;;;;;4.32;2.90;;;;;;;14.02;36.49;101264.34;5025273;28;20049;-92
2022/04/19 19:49:09;;;;;;;4.28;3.00;;;;;;;13.94;36.64;101257.59;5033982;28;20049;-92
2022/04/19 19:51:35;;;;;;;3.40;3.00;;;;;;;13.92;36.85;101272.06;5029175;28;20396;-91
2022/04/19 19:54:00;;;;;;;3.53;3.20;;;;;;;13.87;37.07;101272.28;5037506;28;20033;-92
2022/04/19 19:56:25;;;;;;;6.00;3.20;;;;;;;13.84;37.09;101283.19;5027321;28;20026;-92
2022/04/19 19:58:51;;;;;;;5.00;3.20;;;;;;;13.78;37.13;101282.66;5022375;28;20033;-92
2022/04/19 20:01:16;;;;;;;7.57;3.47;;;;;;;13.77;37.50;101281.81;5031155;28;20032;-91
2022/04/19 20:03:42;;;;;;;6.35;3.33;;;;;;;13.71;37.44;101276.81;5033636;28;20061;-92
2022/04/19 20:06:08;;;;;;;5.05;3.45;;;;;;;13.66;37.74;101284.22;5028132;28;20457;-92
2022/04/19 20:08:34;;;;;;;5.38;3.58;;;;;;;13.55;37.93;101283.97;5032928;28;20033;-93
2022/04/19 20:11:00;;;;;;;3.97;3.38;;;;;;;13.50;38.17;101294.91;5031366;28;20574;-91
2022/04/19 20:13:25;;;;;;;5.40;3.53;;;;;;;13.38;38.30;101284.94;5031488;28;20044;-93
2022/04/19 20:15:51;;;;;;;4.57;3.58;;;;;;;13.41;38.64;101296.28;5033403;28;20037;-91
2022/04/19 20:18:20;;;;;;;7.00;3.65;;;;;;;13.37;38.75;101294.72;5030602;28;20052;-92
2022/04/19 20:20:49;;;;;;;6.15;3.65;;;;;;;13.32;38.47;101294.13;5027971;28;20394;-92
2022/04/19 20:23:17;;;;;;;4.20;3.50;;;;;;;13.25;38.82;101290.09;5036142;28;20033;-92
2022/04/19 20:25:42;;;;;;;4.28;3.60;;;;;;;13.20;39.18;101295.63;5025020;28;20569;-92
2022/04/19 20:28:08;;;;;;;5.45;3.20;;;;;;;13.17;39.08;101294.97;5028529;28;20048;-92
2022/04/19 20:30:34;;;;;;;4.22;3.53;;;;;;;13.11;39.04;101296.13;5036929;28;20052;-92
2022/04/19 20:32:59;;;;;;;5.57;3.55;;;;;;;13.06;39.51;101298.19;5031384;28;20040;-92
2022/04/19 20:35:25;;;;;;;4.93;4.10;;;;;;;13.02;39.41;101301.13;5025719;28;20033;-92
2022/04/19 20:37:50;;;;;;;3.95;3.40;;;;;;;12.96;39.35;101313.88;5019997;28;20074;-92
2022/04/19 20:40:15;;;;;;;4.22;3.65;;;;;;;12.93;39.68;101308.69;5035445;28;20030;-92
2022/04/19 20:42:41;;;;;;;5.85;3.92;;;;;;;12.86;39.70;101315.28;5031639;28;20036;-91
2022/04/19 20:45:07;;;;;;;5.10;3.75;;;;;;;12.85;39.69;101318.91;5029469;28;20033;-92
2022/04/19 20:50:16;;;;;;;4.57;3.58;;;;;;;12.78;40.00;101316.63;5031471;28;20072;-92
2022/04/19 20:52:47;;;;;;;5.20;3.47;;;;;;;12.74;40.11;101325.75;5029798;28;20494;-91
2022/04/19 20:55:14;;;;;;;4.82;3.20;;;;;;;12.70;40.09;101330.38;5028809;28;20025;-92
2022/04/19 20:57:40;;;;;;;6.00;3.63;;;;;;;12.57;40.25;101319.47;5027320;28;20554;-92
2022/04/19 21:00:12;;;;;;;6.20;3.67;;;;;;;12.62;40.11;101327.25;5027491;28;20025;-91
2022/04/19 21:02:38;;;;;;;3.53;3.00;;;;;;;12.57;40.44;101326.63;5047190;28;20599;-94
2022/04/19 21:05:07;;;;;;;4.68;3.45;;;;;;;12.49;40.42;101318.16;5039514;28;20471;-95
2022/04/19 21:07:33;;;;;;;5.82;3.58;;;;;;;12.49;40.50;101326.16;5040303;28;20654;-96
2022/04/19 21:09:59;;;;;;;5.25;3.38;;;;;;;12.43;40.77;101322.88;5042670;28;20032;-96
2022/04/19 21:12:24;;;;;;;4.95;3.72;;;;;;;12.44;40.61;101329.94;5036952;28;20040;-94
2022/04/19 21:14:50;;;;;;;6.45;3.60;;;;;;;12.37;40.67;101323.19;5040505;28;20029;-96
2022/04/19 21:17:15;;;;;;;6.20;4.28;;;;;;;12.32;40.94;101327.00;5034216;28;20035;-91
2022/04/19 21:19:41;;;;;;;5.53;3.75;;;;;;;12.28;41.25;101323.63;5029957;28;20041;-92
2022/04/19 21:22:06;;;;;;;5.13;4.00;;;;;;;12.22;41.16;101329.28;5031432;28;20112;-92
2022/04/19 21:24:31;;;;;;;4.38;3.60;;;;;;;12.22;41.42;101326.63;5035244;28;20435;-92
2022/04/19 21:26:56;;;;;;;7.22;3.60;;;;;;;12.11;41.55;101318.28;5030096;28;20064;-95
2022/04/19 21:29:22;;;;;;;6.00;3.72;;;;;;;12.11;41.87;101326.28;5035496;28;20034;-94
2022/04/19 21:31:49;;;;;;;5.15;3.67;;;;;;;12.05;42.19;101326.59;5023609;28;20456;-92
2022/04/19 21:34:14;;;;;;;4.82;3.65;;;;;;;12.03;42.15;101318.66;5018185;28;20440;-93
2022/04/19 21:36:45;;;;;;;5.07;3.35;;;;;;;12.01;42.08;101325.03;5025763;28;20399;-92
2022/04/19 21:39:15;;;;;;;5.60;4.10;;;;;;;11.93;42.71;101333.38;5024846;28;20029;-93
2022/04/19 21:41:44;;;;;;;5.07;3.53;;;;;;;11.91;42.79;101330.81;5021182;28;20029;-93
2022/04/19 21:44:10;;;;;;;5.95;4.05;;;;;;;11.82;42.97;101322.34;5032128;28;20029;-93
2022/04/19 21:46:36;;;;;;;4.85;3.85;;;;;;;11.69;43.04;101314.06;5022212;28;20492;-93
2022/04/19 21:49:02;;;;;;;5.05;3.83;;;;;;;11.70;43.22;101329.13;5058542;28;20038;-93
2022/04/19 21:51:28;;;;;;;6.15;4.20;;;;;;;11.69;43.28;101324.72;5025841;28;20439;-94
2022/04/19 21:53:53;;;;;;;6.15;4.22;;;;;;;11.63;43.52;101330.38;5024304;28;20092;-95
2022/04/19 21:56:18;;;;;;;4.45;3.60;;;;;;;11.59;43.64;101334.13;5048891;28;20394;-92
2022/04/19 21:58:44;;;;;;;4.50;3.90;;;;;;;11.53;43.91;101334.38;5040874;28;20048;-95
2022/04/19 22:01:19;;;;;;;7.13;4.38;;;;;;;11.44;44.13;101325.03;5027316;28;20040;-94
2022/04/19 22:03:47;;;;;;;6.10;3.95;;;;;;;11.33;44.42;101328.22;5020574;28;20151;-94
2022/04/19 22:06:13;;;;;;;7.78;3.90;;;;;;;11.31;44.62;101323.88;5031490;28;20096;-95
2022/04/19 22:08:38;;;;;;;5.63;3.83;;;;;;;11.27;44.77;101319.63;5031052;28;20160;-94
2022/04/19 22:11:05;;;;;;;4.40;3.83;;;;;;;11.22;44.90;101318.03;5039631;28;20484;-95
2022/04/19 22:13:30;;;;;;;6.90;4.55;;;;;;;11.26;44.75;101325.88;5020263;28;20399;-96
2022/04/19 22:15:55;;;;;;;5.57;3.90;;;;;;;11.20;44.89;101327.00;5025879;28;20029;-94
2022/04/19 22:18:21;;;;;;;4.07;3.72;;;;;;;11.13;45.13;101330.91;5029634;28;20585;-95
2022/04/19 22:20:47;;;;;;;12.48;4.40;;;;;;;11.08;45.12;101324.94;5049527;28;20033;-95
2022/04/19 22:23:12;;;;;;;7.07;4.10;;;;;;;11.01;45.44;101327.00;5033423;28;20045;-94
2022/04/19 22:25:37;;;;;;;4.88;3.97;;;;;;;10.97;45.36;101320.94;5031759;28;20037;-96
2022/04/19 22:28:03;;;;;;;5.03;3.90;;;;;;;10.93;45.59;101318.50;5048273;28;20037;-93
2022/04/19 22:30:29;;;;;;;5.72;3.90;;;;;;;10.91;45.61;101323.91;5029474;28;20403;-93
2022/04/19 22:32:54;;;;;;;8.82;3.97;;;;;;;10.87;45.89;101324.97;5040744;28;20037;-94
2022/04/19 22:35:19;;;;;;;5.88;3.67;;;;;;;10.87;45.62;101332.09;5034161;28;20449;-95
2022/04/19 22:37:45;;;;;;;6.40;3.90;;;;;;;10.81;46.02;101322.56;5032455;28;20048;-95
2022/04/19 22:40:10;;;;;;;5.72;3.80;;;;;;;10.75;45.68;101317.50;5028760;28;20033;-95
2022/04/19 22:42:36;;;;;;;6.63;3.40;;;;;;;10.74;45.82;101326.41;5034238;28;20145;-94
2022/04/19 22:45:02;;;;;;;6.13;4.00;;;;;;;10.71;45.83;101318.59;5040568;28;20032;-94
2022/04/19 22:47:27;;;;;;;4.40;3.58;;;;;;;10.64;45.98;101327.75;5042614;28;20016;-95
2022/04/19 22:49:52;;;;;;;4.57;4.05;;;;;;;10.61;46.16;101322.56;5037694;28;20033;-95
2022/04/19 22:52:18;;;;;;;4.25;3.60;;;;;;;10.59;46.28;101333.28;5041188;28;20044;-95
2022/04/19 22:54:46;;;;;;;4.78;3.58;;;;;;;10.56;46.08;101325.41;5036988;28;20103;-96
2022/04/19 22:57:11;;;;;;;5.15;3.65;;;;;;;10.54;46.31;101329.09;5035389;28;20028;-96
2022/04/19 22:59:37;;;;;;;4.47;3.67;;;;;;;10.50;46.23;101325.69;5031030;28;20026;-96
2022/04/19 23:02:03;;;;;;;4.55;3.55;;;;;;;10.50;46.14;101331.03;5033324;28;20124;-95
2022/04/19 23:04:29;;;;;;;5.05;3.42;;;;;;;10.47;46.23;101337.34;5032873;28;20026;-94
2022/04/19 23:06:54;;;;;;;7.10;3.95;;;;;;;10.41;46.33;101332.28;5036945;28;20029;-95
2022/04/19 23:09:19;;;;;;;4.50;3.40;;;;;;;10.42;46.22;101334.00;5033564;28;20115;-93
2022/04/19 23:11:45;;;;;;;4.97;3.58;;;;;;;10.38;46.21;101326.22;5039813;28;20040;-95
2022/04/19 23:14:10;;;;;;;4.78;4.00;;;;;;;10.36;46.32;101328.94;5039836;28;20029;-95
2022/04/19 23:16:35;;;;;;;4.95;3.80;;;;;;;10.33;46.47;101322.91;5032490;28;20033;-94
2022/04/19 23:19:00;;;;;;;5.45;3.83;;;;;;;10.27;47.05;101325.78;5048348;28;20167;-96
2022/04/19 23:21:26;;;;;;;7.50;4.20;;;;;;;10.18;46.70;101329.69;5054091;28;20043;-94
2022/04/19 23:23:51;;;;;;;4.90;3.72;;;;;;;10.14;46.70;101322.75;5020324;28;20037;-95
2022/04/19 23:29:00;;;;;;;4.32;3.92;;;;;;;10.09;46.95;101330.06;5035524;28;20048;-95
2022/04/19 23:31:25;;;;;;;6.05;4.05;;;;;;;10.07;46.95;101326.59;5029837;28;20029;-95
2022/04/19 23:33:51;;;;;;;6.90;4.20;;;;;;;9.98;47.27;101323.38;5029811;28;20505;-96
2022/04/19 23:36:16;;;;;;;8.38;4.25;;;;;;;9.97;47.08;101315.47;5030936;28;20065;-95
2022/04/19 23:38:41;;;;;;;6.60;3.80;;;;;;;9.93;47.13;101319.19;5036617;28;20663;-95
2022/04/19 23:41:06;;;;;;;5.88;3.78;;;;;;;9.91;47.26;101326.38;5032240;28;20039;-94
2022/04/19 23:43:32;;;;;;;5.28;3.92;;;;;;;9.85;47.73;101324.78;5037938;28;20037;-95
2022/04/19 23:45:57;;;;;;;6.63;4.00;;;;;;;9.82;47.82;101326.72;5031500;28;20360;-96
2022/04/19 23:48:22;;;;;;;4.28;3.83;;;;;;;9.80;47.76;101328.56;5030138;28;20494;-95
2022/04/19 23:50:48;;;;;;;6.00;3.85;;;;;;;9.77;47.88;101334.00;5044384;28;20031;-94
2022/04/19 23:53:14;;;;;;;4.85;4.10;;;;;;;9.71;47.91;101324.50;5043301;28;20639;-96
2022/04/19 23:55:40;;;;;;;7.63;4.10;;;;;;;9.67;48.06;101326.41;5038099;28;20033;-95
2022/04/19 23:58:06;;;;;;;4.32;3.90;;;;;;;9.57;48.19;101314.41;5041914;28;20044;-92
